Terminal Aerodrome Forecast
Issued by NWS Louisville, KY

Home | Current Version | Previous Version | Text Only | Print | Product List | Glossary On
Versions: 1 2 3 4 5 6 7 8 9 10 11 12 13 14 15 16 17
000
FTUS43 KLMK 221900 AAA
TAFSDF
TAF AMD
KSDF 221940Z 2220/2324 25009KT P6SM OVC200
     FM230200 29004KT P6SM BKN040 OVC180
     FM231400 26006KT P6SM BKN040 OVC100=

USA.gov is the U.S. government's official web portal to all federal, state and local government web resources and services.